createdAt,value
2018-11-10T00:01:09.889Z,67.74
2018-11-10T00:03:14.715Z,67.33
2018-11-10T00:05:20.325Z,67.40
2018-11-10T00:07:25.354Z,67.52
2018-11-10T00:09:30.370Z,68.00
2018-11-10T00:11:35.252Z,67.87
2018-11-10T00:13:40.183Z,68.20
2018-11-10T00:15:44.993Z,68.22
2018-11-10T00:17:49.697Z,68.70
2018-11-10T00:19:54.498Z,69.00
2018-11-10T00:21:59.407Z,68.90
2018-11-10T00:24:04.172Z,69.05
2018-11-10T00:28:08.449Z,68.68
2018-11-10T00:30:15.266Z,68.11
2018-11-10T00:32:21.231Z,68.20
2018-11-10T00:34:26.067Z,68.46
2018-11-10T00:36:30.920Z,68.51
2018-11-10T00:38:35.629Z,68.23
2018-11-10T00:40:40.402Z,68.17
2018-11-10T00:42:45.515Z,68.08
2018-11-10T00:44:50.167Z,67.89
2018-11-10T00:46:54.891Z,67.55
2018-11-10T00:48:59.645Z,67.00
2018-11-10T00:51:04.371Z,66.75
2018-11-10T00:53:09.190Z,66.65
2018-11-10T00:55:13.970Z,66.56
2018-11-10T00:57:18.853Z,66.78
2018-11-10T00:59:23.557Z,66.56
2018-11-10T01:01:28.262Z,66.54
2018-11-10T01:03:32.980Z,65.87
2018-11-10T01:05:37.718Z,66.51
2018-11-10T01:07:42.815Z,66.54
2018-11-10T01:09:47.678Z,66.04
2018-11-10T01:11:52.450Z,65.84
2018-11-10T01:13:57.115Z,66.30
2018-11-10T01:16:01.871Z,66.21
2018-11-10T01:18:07.020Z,66.18
2018-11-10T01:20:12.525Z,66.13
2018-11-10T01:22:17.252Z,65.71
2018-11-10T01:24:21.954Z,65.82
2018-11-10T01:26:27.463Z,66.54
2018-11-10T01:28:32.122Z,66.71
2018-11-10T01:30:36.898Z,66.80
2018-11-10T01:32:41.641Z,66.85
2018-11-10T01:34:46.643Z,67.16
2018-11-10T01:36:51.646Z,66.84
2018-11-10T01:38:56.377Z,66.81
2018-11-10T01:41:01.111Z,66.55
2018-11-10T01:43:05.877Z,66.53
2018-11-10T01:45:13.863Z,67.31
2018-11-10T01:47:18.593Z,67.25
2018-11-10T01:49:23.331Z,67.02
2018-11-10T01:51:28.034Z,66.97
2018-11-10T01:53:32.702Z,67.01
2018-11-10T01:55:37.513Z,66.80
2018-11-10T01:57:42.888Z,66.13
2018-11-10T01:59:47.621Z,66.49
2018-11-10T02:01:53.507Z,66.12
2018-11-10T02:03:58.192Z,66.19
2018-11-10T02:06:02.869Z,65.97
2018-11-10T02:08:07.914Z,65.77
2018-11-10T02:10:13.371Z,65.73
2018-11-10T02:12:18.288Z,66.01
2018-11-10T02:14:23.023Z,66.41
2018-11-10T02:16:27.872Z,65.69
2018-11-10T02:18:32.490Z,65.89
2018-11-10T02:20:37.237Z,65.62
2018-11-10T02:22:42.213Z,66.14
2018-11-10T02:24:46.943Z,65.57
2018-11-10T02:26:51.654Z,66.01
2018-11-10T02:28:56.984Z,65.35
2018-11-10T02:31:01.650Z,65.74
2018-11-10T02:33:06.711Z,65.80
2018-11-10T02:35:11.891Z,65.93
2018-11-10T02:37:16.509Z,66.10
2018-11-10T02:39:21.203Z,65.75
2018-11-10T02:41:25.875Z,65.76
2018-11-10T02:43:30.560Z,65.78
2018-11-10T02:45:35.266Z,65.45
2018-11-10T02:47:39.920Z,64.79
2018-11-10T02:49:44.535Z,64.00
2018-11-10T02:51:49.207Z,64.25
2018-11-10T02:53:53.852Z,63.83
2018-11-10T02:55:58.599Z,64.38
2018-11-10T02:58:03.268Z,64.57
2018-11-10T03:00:10.056Z,63.64
2018-11-10T03:02:14.882Z,63.44
2018-11-10T03:04:19.783Z,63.84
2018-11-10T03:06:24.573Z,63.09
2018-11-10T03:08:29.405Z,63.96
2018-11-10T03:10:34.314Z,63.71
2018-11-10T03:12:39.935Z,62.90
2018-11-10T03:14:44.755Z,63.00
2018-11-10T03:16:49.771Z,63.20
2018-11-10T03:18:54.451Z,62.97
2018-11-10T03:20:59.194Z,62.80
2018-11-10T03:23:03.867Z,62.83
2018-11-10T03:25:08.850Z,62.98
2018-11-10T03:27:13.556Z,62.73
2018-11-10T03:29:18.198Z,63.43
2018-11-10T03:31:23.046Z,62.50
2018-11-10T03:33:27.798Z,62.61
2018-11-10T03:35:32.494Z,62.30
2018-11-10T03:37:37.184Z,62.42
2018-11-10T03:39:41.855Z,62.24
2018-11-10T03:41:46.587Z,61.63
2018-11-10T03:43:51.318Z,61.50
2018-11-10T03:45:57.345Z,61.05
2018-11-10T03:48:02.191Z,61.46
2018-11-10T03:50:07.545Z,61.73
2018-11-10T03:52:12.423Z,61.32
2018-11-10T03:54:17.181Z,61.24
2018-11-10T03:56:21.839Z,61.23
2018-11-10T03:58:26.682Z,61.17
2018-11-10T04:00:31.395Z,61.90
2018-11-10T04:02:36.130Z,61.07
2018-11-10T04:04:40.835Z,61.32
2018-11-10T04:06:45.508Z,61.01
2018-11-10T04:08:50.190Z,61.36
2018-11-10T04:10:55.060Z,61.05
2018-11-10T04:12:59.795Z,60.73
2018-11-10T04:15:05.063Z,60.69
2018-11-10T04:17:09.808Z,61.08
2018-11-10T04:19:14.720Z,59.95
2018-11-10T04:21:19.493Z,60.76
2018-11-10T04:23:24.142Z,60.04
2018-11-10T04:25:29.039Z,59.75
2018-11-10T04:27:34.451Z,59.47
2018-11-10T04:29:39.192Z,59.80
2018-11-10T04:31:43.887Z,59.62
2018-11-10T04:33:48.593Z,59.81
2018-11-10T04:35:53.604Z,60.08
2018-11-10T04:37:58.537Z,59.57
2018-11-10T04:40:03.277Z,59.37
2018-11-10T04:42:08.041Z,59.85
2018-11-10T04:44:12.802Z,59.88
2018-11-10T04:46:17.623Z,59.24
2018-11-10T04:48:22.415Z,59.33
2018-11-10T04:50:27.318Z,59.63
2018-11-10T04:52:32.179Z,59.76
2018-11-10T04:54:37.502Z,59.71
2018-11-10T04:56:42.311Z,59.80
2018-11-10T04:58:47.153Z,59.68
2018-11-10T05:00:51.917Z,59.89
2018-11-10T05:02:56.755Z,60.52
2018-11-10T05:05:01.646Z,59.50
2018-11-10T05:07:06.643Z,59.40
2018-11-10T05:09:11.883Z,59.37
2018-11-10T05:11:16.757Z,59.70
2018-11-10T05:13:21.490Z,59.75
2018-11-10T05:15:26.138Z,60.18
2018-11-10T05:17:30.833Z,59.71
2018-11-10T05:19:35.507Z,59.87
2018-11-10T05:21:40.233Z,60.11
2018-11-10T05:23:44.957Z,60.70
2018-11-10T05:25:49.919Z,60.86
2018-11-10T05:27:54.715Z,61.09
2018-11-10T05:29:59.808Z,62.40
2018-11-10T05:32:04.517Z,62.56
2018-11-10T05:34:09.297Z,63.07
2018-11-10T05:36:14.215Z,63.34
2018-11-10T05:38:18.929Z,64.05
2018-11-10T05:40:23.714Z,64.60
2018-11-10T05:42:28.404Z,65.34
2018-11-10T05:44:33.191Z,65.70
2018-11-10T05:46:38.126Z,66.45
2018-11-10T05:48:42.926Z,66.97
2018-11-10T05:50:47.670Z,67.84
2018-11-10T05:52:52.483Z,67.91
2018-11-10T05:54:58.005Z,68.27
2018-11-10T05:57:02.793Z,68.71
2018-11-10T05:59:07.891Z,69.59
2018-11-10T06:01:12.670Z,69.28
2018-11-10T06:03:17.704Z,69.33
2018-11-10T06:05:24.458Z,70.02
2018-11-10T06:07:29.227Z,70.59
2018-11-10T06:09:34.105Z,70.73
2018-11-10T06:11:39.254Z,70.97
2018-11-10T06:13:43.989Z,70.98
2018-11-10T06:15:48.799Z,71.52
2018-11-10T06:17:53.736Z,71.71
2018-11-10T06:19:58.556Z,71.03
2018-11-10T06:22:03.470Z,71.04
2018-11-10T06:24:08.863Z,71.80
2018-11-10T06:26:14.671Z,71.97
2018-11-10T06:28:19.486Z,71.92
2018-11-10T06:30:24.318Z,72.02
2018-11-10T06:32:29.062Z,72.94
2018-11-10T06:34:33.791Z,72.68
2018-11-10T06:36:38.569Z,72.63
2018-11-10T06:38:43.366Z,72.47
2018-11-10T06:40:48.235Z,72.29
2018-11-10T06:42:52.949Z,72.72
2018-11-10T06:44:57.848Z,72.98
2018-11-10T06:47:02.613Z,72.86
2018-11-10T06:49:07.845Z,71.85
2018-11-10T06:51:12.562Z,72.46
2018-11-10T06:53:17.320Z,72.81
2018-11-10T06:55:22.104Z,73.49
2018-11-10T06:57:27.103Z,74.05
2018-11-10T06:59:31.835Z,73.65
2018-11-10T07:01:36.751Z,73.08
2018-11-10T07:03:41.692Z,72.60
2018-11-10T07:05:46.564Z,73.16
2018-11-10T07:07:51.274Z,72.93
2018-11-10T07:09:56.060Z,73.05
2018-11-10T07:12:01.152Z,73.11
2018-11-10T07:14:05.978Z,73.16
2018-11-10T07:16:10.775Z,73.15
2018-11-10T07:18:15.616Z,73.63
2018-11-10T07:20:20.460Z,73.69
2018-11-10T07:22:25.280Z,73.74
2018-11-10T07:24:29.991Z,73.71
2018-11-10T07:26:34.922Z,74.14
2018-11-10T07:28:39.669Z,74.89
2018-11-10T07:30:44.521Z,75.14
2018-11-10T07:32:49.322Z,74.19
2018-11-10T07:34:54.080Z,74.48
2018-11-10T07:36:58.927Z,74.43
2018-11-10T07:39:04.383Z,74.03
2018-11-10T07:41:09.339Z,74.06
2018-11-10T07:43:14.191Z,73.64
2018-11-10T07:45:18.881Z,73.47
2018-11-10T07:47:23.783Z,73.01
2018-11-10T07:49:29.403Z,73.39
2018-11-10T07:51:34.694Z,73.81
2018-11-10T07:53:39.386Z,73.84
2018-11-10T07:55:44.095Z,73.56
2018-11-10T07:57:48.852Z,73.50
2018-11-10T07:59:53.632Z,73.69
2018-11-10T08:02:00.856Z,73.89
2018-11-10T08:04:10.261Z,73.44
2018-11-10T08:06:15.001Z,73.81
2018-11-10T08:08:19.787Z,73.64
2018-11-10T08:10:24.603Z,72.77
2018-11-10T08:12:31.561Z,73.22
2018-11-10T08:14:36.381Z,72.85
2018-11-10T08:16:41.231Z,72.98
2018-11-10T08:18:46.011Z,73.23
2018-11-10T08:20:50.989Z,72.85
2018-11-10T08:22:55.774Z,72.18
2018-11-10T08:25:00.556Z,72.69
2018-11-10T08:27:05.632Z,72.99
2018-11-10T08:29:10.688Z,72.05
2018-11-10T08:31:15.680Z,72.61
2018-11-10T08:33:20.495Z,72.72
2018-11-10T08:35:25.764Z,73.04
2018-11-10T08:39:45.232Z,72.37
2018-11-10T08:42:01.134Z,72.75
2018-11-10T08:44:08.009Z,72.62
2018-11-10T08:46:13.077Z,72.10
2018-11-10T08:48:30.048Z,72.20
2018-11-10T08:50:36.419Z,72.51
2018-11-10T08:52:52.303Z,71.88
2018-11-10T08:55:03.908Z,72.05
2018-11-10T08:57:09.786Z,72.69
2018-11-10T08:59:19.815Z,72.08
2018-11-10T09:01:24.688Z,71.85
2018-11-10T09:03:29.545Z,71.76
2018-11-10T09:05:34.490Z,71.71
2018-11-10T09:07:39.914Z,71.43
2018-11-10T09:09:44.900Z,71.69
2018-11-10T09:11:50.218Z,71.40
2018-11-10T09:13:55.982Z,71.52
2018-11-10T09:16:00.973Z,71.13
2018-11-10T09:18:06.124Z,71.38
2018-11-10T09:20:13.322Z,70.99
2018-11-10T09:22:18.765Z,70.82
2018-11-10T09:24:25.493Z,71.59
2018-11-10T09:26:30.817Z,71.79
2018-11-10T09:28:36.172Z,71.69
2018-11-10T09:30:41.711Z,71.60
2018-11-10T09:32:46.923Z,71.02
2018-11-10T09:34:52.329Z,71.30
2018-11-10T09:36:58.531Z,71.36
2018-11-10T09:39:03.761Z,71.19
2018-11-10T09:41:08.689Z,70.90
2018-11-10T09:43:15.341Z,70.94
2018-11-10T09:45:20.769Z,70.76
2018-11-10T09:47:28.233Z,69.99
2018-11-10T09:49:34.016Z,70.10
2018-11-10T09:51:39.538Z,69.81
2018-11-10T09:53:44.467Z,70.27
2018-11-10T09:55:50.107Z,70.07
2018-11-10T09:57:56.002Z,70.07
2018-11-10T10:00:01.543Z,69.56
2018-11-10T10:02:07.128Z,69.25
2018-11-10T10:04:12.092Z,69.34
2018-11-10T10:06:17.166Z,69.68
2018-11-10T10:08:22.351Z,69.11
2018-11-10T10:10:29.496Z,69.57
2018-11-10T10:12:35.597Z,69.78
2018-11-10T10:14:40.952Z,70.21
2018-11-10T10:16:46.015Z,70.24
2018-11-10T10:18:50.937Z,70.25
2018-11-10T10:20:56.508Z,70.19
2018-11-10T10:23:02.745Z,70.37
2018-11-10T10:25:10.872Z,70.11
2018-11-10T10:27:16.068Z,70.21
2018-11-10T10:29:21.168Z,70.95
2018-11-10T10:31:26.332Z,70.80
2018-11-10T10:33:31.280Z,70.34
2018-11-10T10:35:36.539Z,69.91
2018-11-10T10:37:41.715Z,70.26
2018-11-10T10:39:48.077Z,70.70
2018-11-10T10:41:53.359Z,70.62
2018-11-10T10:43:58.672Z,70.76
2018-11-10T10:46:04.217Z,71.11
2018-11-10T10:48:09.308Z,71.09
2018-11-10T10:50:15.970Z,71.80
2018-11-10T10:52:23.089Z,71.80
2018-11-10T10:54:28.215Z,71.86
2018-11-10T10:56:33.582Z,72.21
2018-11-10T10:58:38.533Z,72.94
2018-11-10T11:00:48.601Z,72.85
2018-11-10T11:02:58.907Z,72.08
2018-11-10T11:05:22.766Z,72.22
2018-11-10T11:07:28.063Z,72.75
2018-11-10T11:09:32.953Z,72.87
2018-11-10T11:11:37.736Z,72.80
2018-11-10T11:13:42.757Z,72.94
2018-11-10T11:15:47.906Z,73.46
2018-11-10T11:17:52.904Z,73.90
2018-11-10T11:19:57.702Z,73.95
2018-11-10T11:22:02.762Z,74.38
2018-11-10T11:24:07.503Z,74.35
2018-11-10T11:26:12.513Z,74.30
2018-11-10T11:28:17.273Z,74.68
2018-11-10T11:30:22.358Z,75.01
2018-11-10T11:32:27.143Z,75.41
2018-11-10T11:34:32.465Z,75.81
2018-11-10T11:36:37.466Z,75.88
2018-11-10T11:38:42.619Z,75.92
2018-11-10T11:40:47.547Z,75.98
2018-11-10T11:42:53.641Z,77.04
2018-11-10T11:44:59.058Z,77.25
2018-11-10T11:47:04.060Z,78.00
2018-11-10T11:49:09.015Z,78.16
2018-11-10T11:51:14.017Z,78.00
2018-11-10T11:53:19.065Z,78.02
2018-11-10T11:55:23.812Z,77.78
2018-11-10T11:57:28.607Z,77.73
2018-11-10T11:59:33.644Z,78.14
2018-11-10T12:01:38.422Z,78.26
2018-11-10T12:03:43.194Z,78.21
2018-11-10T12:05:48.145Z,77.93
2018-11-10T12:07:53.530Z,78.31
2018-11-10T12:09:58.329Z,78.47
2018-11-10T12:12:03.111Z,78.90
2018-11-10T12:14:10.000Z,78.74
2018-11-10T12:16:27.182Z,79.01
2018-11-10T12:18:21.240Z,78.69
2018-11-10T12:20:25.998Z,79.13
2018-11-10T12:22:30.818Z,79.13
2018-11-10T12:24:35.715Z,79.49
2018-11-10T12:26:40.877Z,79.66
2018-11-10T12:28:46.994Z,80.07
2018-11-10T12:30:52.347Z,80.13
2018-11-10T12:32:57.275Z,79.93
2018-11-10T12:35:02.238Z,80.15
2018-11-10T12:37:07.664Z,80.58
2018-11-10T12:39:12.470Z,80.85
2018-11-10T12:41:17.609Z,80.53
2018-11-10T12:43:22.481Z,80.67
2018-11-10T12:45:27.612Z,80.28
2018-11-10T12:47:33.040Z,80.21
2018-11-10T12:49:40.436Z,80.56
2018-11-10T12:51:45.729Z,79.78
2018-11-10T12:53:53.805Z,79.98
2018-11-10T12:55:59.337Z,79.37
2018-11-10T12:58:05.123Z,78.89
2018-11-10T13:00:14.785Z,78.81
2018-11-10T13:02:20.868Z,79.27
2018-11-10T13:04:26.187Z,79.12
2018-11-10T13:06:31.571Z,78.82
2018-11-10T13:08:36.538Z,79.36
2018-11-10T13:10:41.466Z,78.84
2018-11-10T13:12:46.349Z,78.77
2018-11-10T13:14:51.308Z,79.41
2018-11-10T13:16:56.854Z,79.11
2018-11-10T13:19:02.382Z,79.39
2018-11-10T13:21:08.185Z,79.58
2018-11-10T13:23:14.098Z,79.41
2018-11-10T13:25:19.891Z,78.78
2018-11-10T13:27:25.336Z,78.82
2018-11-10T13:29:31.264Z,79.17
2018-11-10T13:31:37.001Z,78.84
2018-11-10T13:33:42.422Z,78.84
2018-11-10T13:35:48.097Z,78.69
2018-11-10T13:37:54.160Z,78.48
2018-11-10T13:40:00.941Z,78.94
2018-11-10T13:42:07.066Z,79.18
2018-11-10T13:44:15.113Z,79.68
2018-11-10T13:46:27.863Z,79.39
2018-11-10T13:48:35.692Z,79.76
2018-11-10T13:50:43.863Z,79.71
2018-11-10T13:52:52.248Z,79.66
2018-11-10T13:54:59.663Z,79.44
2018-11-10T13:57:04.753Z,79.64
2018-11-10T13:59:10.348Z,79.74
2018-11-10T14:01:15.423Z,79.78
2018-11-10T14:03:20.345Z,79.71
2018-11-10T14:05:25.247Z,80.53
2018-11-10T14:07:30.295Z,80.38
2018-11-10T14:09:35.073Z,80.48
2018-11-10T14:11:40.531Z,79.86
2018-11-10T14:13:45.497Z,79.85
2018-11-10T14:15:50.524Z,79.29
2018-11-10T14:17:55.490Z,79.17
2018-11-10T14:20:00.671Z,79.42
2018-11-10T14:22:05.787Z,79.80
2018-11-10T14:24:10.740Z,79.62
2018-11-10T14:26:15.738Z,80.07
2018-11-10T14:28:20.633Z,80.01
2018-11-10T14:30:25.533Z,80.37
2018-11-10T14:32:30.485Z,80.47
2018-11-10T14:34:35.324Z,80.17
2018-11-10T14:36:40.269Z,80.23
2018-11-10T14:38:45.626Z,80.78
2018-11-10T14:40:50.406Z,80.62
2018-11-10T14:42:55.304Z,80.82
2018-11-10T14:45:00.206Z,80.65
2018-11-10T14:47:05.049Z,80.67
2018-11-10T14:49:09.872Z,81.07
2018-11-10T14:51:15.426Z,80.61
2018-11-10T14:53:20.467Z,80.74
2018-11-10T14:55:25.454Z,80.51
2018-11-10T14:57:30.320Z,80.24
2018-11-10T14:59:35.256Z,80.78
2018-11-10T15:01:40.053Z,81.03
2018-11-10T15:03:44.868Z,80.35
2018-11-10T15:05:49.826Z,80.25
2018-11-10T15:07:54.891Z,79.89
2018-11-10T15:09:59.766Z,80.47
2018-11-10T15:12:04.768Z,80.97
2018-11-10T15:14:09.782Z,80.74
2018-11-10T15:16:14.669Z,80.65
2018-11-10T15:18:19.906Z,80.50
2018-11-10T15:20:24.868Z,80.58
2018-11-10T15:22:29.909Z,80.73
2018-11-10T15:24:34.807Z,80.57
2018-11-10T15:26:39.883Z,80.60
2018-11-10T15:28:46.243Z,80.66
2018-11-10T15:30:51.067Z,80.14
2018-11-10T15:32:57.085Z,79.92
2018-11-10T15:35:02.061Z,79.38
2018-11-10T15:37:07.133Z,79.54
2018-11-10T15:41:29.533Z,79.71
2018-11-10T15:43:39.491Z,79.54
2018-11-10T15:45:44.324Z,79.74
2018-11-10T15:47:50.052Z,79.50
2018-11-10T15:49:54.886Z,79.44
2018-11-10T15:51:59.571Z,79.70
2018-11-10T15:54:05.043Z,79.87
2018-11-10T15:56:09.963Z,80.26
2018-11-10T15:58:14.766Z,79.91
2018-11-10T16:00:20.278Z,80.25
2018-11-10T16:02:25.029Z,80.18
2018-11-10T16:04:29.937Z,79.82
2018-11-10T16:06:35.029Z,79.35
2018-11-10T16:08:39.731Z,79.73
2018-11-10T16:10:44.458Z,80.17
2018-11-10T16:12:49.283Z,79.44
2018-11-10T16:14:54.059Z,79.64
2018-11-10T16:16:58.815Z,80.34
2018-11-10T16:19:03.636Z,80.75
2018-11-10T16:21:08.397Z,81.02
2018-11-10T16:23:13.497Z,80.91
2018-11-10T16:25:18.795Z,80.65
2018-11-10T16:27:24.690Z,81.38
2018-11-10T16:29:36.378Z,81.46
2018-11-10T16:31:42.956Z,81.47
2018-11-10T16:33:48.522Z,81.39
2018-11-10T16:35:54.030Z,81.09
2018-11-10T16:37:59.003Z,80.77
2018-11-10T16:40:04.621Z,80.18
2018-11-10T16:44:34.601Z,80.04
2018-11-10T16:46:42.346Z,79.71
2018-11-10T16:48:48.323Z,79.35
2018-11-10T16:50:54.169Z,79.33
2018-11-10T16:52:59.437Z,78.82
2018-11-10T16:55:04.948Z,78.88
2018-11-10T16:57:10.483Z,78.77
2018-11-10T16:59:16.060Z,78.43
2018-11-10T17:01:22.226Z,78.96
2018-11-10T17:03:32.076Z,78.51
2018-11-10T17:05:38.614Z,78.59
2018-11-10T17:07:45.134Z,78.53
2018-11-10T17:09:50.269Z,78.44
2018-11-10T17:11:55.781Z,78.31
2018-11-10T17:14:03.459Z,78.48
2018-11-10T17:16:09.089Z,78.37
2018-11-10T17:18:14.817Z,78.29
2018-11-10T17:20:20.745Z,78.07
2018-11-10T17:22:26.307Z,78.06
2018-11-10T17:24:31.872Z,77.78
2018-11-10T17:26:37.372Z,77.69
2018-11-10T17:28:42.985Z,77.76
2018-11-10T17:30:48.068Z,77.60
2018-11-10T17:32:53.190Z,77.35
2018-11-10T17:34:58.313Z,77.03
2018-11-10T17:37:03.758Z,76.61
2018-11-10T17:39:10.467Z,77.08
2018-11-10T17:41:15.811Z,77.04
2018-11-10T17:43:21.088Z,77.20
2018-11-10T17:45:26.616Z,77.03
2018-11-10T17:47:31.732Z,76.84
2018-11-10T17:49:37.061Z,77.38
2018-11-10T17:51:42.306Z,76.71
2018-11-10T17:53:47.436Z,76.12
2018-11-10T17:55:52.348Z,76.68
2018-11-10T17:57:57.558Z,75.30
2018-11-10T18:00:02.543Z,75.13
2018-11-10T18:02:07.884Z,75.51
2018-11-10T18:04:12.825Z,75.92
2018-11-10T18:06:17.816Z,75.62
2018-11-10T18:08:22.674Z,75.15
2018-11-10T18:10:27.723Z,74.62
2018-11-10T18:12:33.567Z,75.16
2018-11-10T18:14:38.586Z,75.47
2018-11-10T18:16:43.800Z,75.70
2018-11-10T18:18:48.551Z,75.72
2018-11-10T18:20:53.599Z,76.22
2018-11-10T18:22:58.679Z,76.06
2018-11-10T18:25:03.706Z,75.52
2018-11-10T18:27:08.707Z,75.39
2018-11-10T18:29:14.296Z,75.49
2018-11-10T18:31:19.667Z,75.90
2018-11-10T18:33:24.840Z,76.51
2018-11-10T18:35:30.247Z,76.50
2018-11-10T18:37:35.240Z,75.94
2018-11-10T18:39:40.401Z,76.38
2018-11-10T18:41:45.748Z,76.50
2018-11-10T18:43:51.117Z,76.88
2018-11-10T18:45:56.467Z,77.03
2018-11-10T18:48:01.773Z,77.30
2018-11-10T18:50:09.840Z,76.91
2018-11-10T18:52:14.982Z,76.96
2018-11-10T18:54:20.151Z,77.07
2018-11-10T18:56:25.144Z,77.81
2018-11-10T18:58:30.528Z,78.55
2018-11-10T19:00:35.616Z,77.66
2018-11-10T19:02:40.938Z,78.38
2018-11-10T19:04:46.059Z,78.79
2018-11-10T19:06:51.253Z,78.73
2018-11-10T19:08:56.683Z,78.77
2018-11-10T19:11:02.018Z,79.39
2018-11-10T19:13:07.069Z,79.17
2018-11-10T19:15:22.231Z,79.63
2018-11-10T19:17:30.207Z,79.78
2018-11-10T19:19:36.418Z,79.46
2018-11-10T19:21:42.813Z,79.98
2018-11-10T19:23:48.459Z,80.21
2018-11-10T19:25:53.353Z,80.35
2018-11-10T19:28:01.674Z,80.33
2018-11-10T19:30:10.276Z,80.39
2018-11-10T19:32:15.178Z,80.61
2018-11-10T19:34:20.912Z,80.96
2018-11-10T19:36:26.031Z,81.02
2018-11-10T19:38:32.218Z,80.74
2018-11-10T19:40:44.619Z,81.37
2018-11-10T19:42:52.015Z,81.33
2018-11-10T19:44:56.945Z,81.44
2018-11-10T19:47:01.940Z,81.40
2018-11-10T19:49:07.085Z,81.55
2018-11-10T19:51:13.507Z,80.58
2018-11-10T19:53:18.803Z,80.74
2018-11-10T19:55:23.737Z,80.79
2018-11-10T19:57:28.907Z,81.40
2018-11-10T19:59:34.209Z,81.75
2018-11-10T20:01:39.124Z,81.95
2018-11-10T20:03:44.998Z,81.84
2018-11-10T20:05:50.489Z,82.29
2018-11-10T20:07:58.996Z,82.40
2018-11-10T20:10:04.121Z,82.41
2018-11-10T20:12:09.915Z,82.43
2018-11-10T20:14:14.990Z,83.08
2018-11-10T20:16:20.125Z,83.12
2018-11-10T20:18:25.720Z,83.25
2018-11-10T20:20:31.565Z,83.44
2018-11-10T20:22:38.300Z,83.71
2018-11-10T20:24:43.541Z,83.69
2018-11-10T20:26:48.806Z,83.75
2018-11-10T20:28:54.170Z,83.98
2018-11-10T20:31:00.369Z,83.83
2018-11-10T20:33:05.933Z,83.92
2018-11-10T20:35:13.038Z,83.91
2018-11-10T20:37:20.046Z,83.97
2018-11-10T20:39:26.238Z,84.16
2018-11-10T20:41:33.686Z,84.20
2018-11-10T20:43:43.213Z,83.92
2018-11-10T20:45:49.551Z,83.87
2018-11-10T20:47:56.226Z,83.90
2018-11-10T20:50:03.725Z,83.87
2018-11-10T20:52:10.073Z,83.91
2018-11-10T20:54:16.250Z,83.64
2018-11-10T20:56:24.197Z,83.85
2018-11-10T20:58:30.635Z,83.76
2018-11-10T21:00:44.155Z,83.62
2018-11-10T21:02:55.591Z,83.68
2018-11-10T21:05:01.662Z,84.02
2018-11-10T21:07:07.784Z,84.10
2018-11-10T21:09:13.738Z,84.23
2018-11-10T21:11:19.508Z,84.63
2018-11-10T21:13:27.977Z,84.61
2018-11-10T21:15:33.445Z,84.36
2018-11-10T21:17:38.772Z,84.27
2018-11-10T21:19:44.121Z,84.23
2018-11-10T21:21:49.582Z,84.36
2018-11-10T21:23:55.795Z,84.87
2018-11-10T21:26:00.975Z,84.86
2018-11-10T21:28:06.525Z,84.99
2018-11-10T21:30:13.465Z,84.81
2018-11-10T21:32:18.990Z,85.00
2018-11-10T21:34:23.982Z,84.57
2018-11-10T21:36:29.387Z,84.57
2018-11-10T21:38:34.476Z,84.71
2018-11-10T21:40:39.537Z,84.46
2018-11-10T21:42:44.988Z,84.64
2018-11-10T21:44:50.337Z,84.65
2018-11-10T21:46:55.440Z,84.72
2018-11-10T21:49:00.646Z,84.93
2018-11-10T21:51:06.291Z,84.96
2018-11-10T21:53:11.251Z,85.02
2018-11-10T21:55:17.714Z,84.91
2018-11-10T21:57:22.703Z,84.98
2018-11-10T21:59:28.477Z,85.00
2018-11-10T22:01:33.489Z,84.41
2018-11-10T22:03:38.355Z,84.57
2018-11-10T22:05:43.285Z,84.62
2018-11-10T22:07:48.647Z,84.75
2018-11-10T22:09:53.773Z,84.80
2018-11-10T22:11:58.637Z,84.82
2018-11-10T22:14:03.997Z,84.25
2018-11-10T22:16:09.840Z,84.25
2018-11-10T22:18:16.377Z,84.14
2018-11-10T22:20:22.804Z,84.09
2018-11-10T22:22:28.449Z,84.31
2018-11-10T22:24:33.444Z,84.20
2018-11-10T22:26:38.372Z,84.55
2018-11-10T22:28:43.490Z,84.48
2018-11-10T22:30:48.543Z,84.13
2018-11-10T22:32:53.543Z,83.91
2018-11-10T22:34:59.066Z,83.87
2018-11-10T22:37:04.810Z,83.08
2018-11-10T22:39:10.772Z,83.29
2018-11-10T22:41:16.451Z,83.73
2018-11-10T22:43:22.138Z,84.07
2018-11-10T22:45:27.185Z,83.39
2018-11-10T22:47:32.227Z,83.05
2018-11-10T22:49:37.139Z,83.27
2018-11-10T22:51:42.287Z,83.39
2018-11-10T22:53:47.517Z,82.73
2018-11-10T22:55:52.392Z,82.94
2018-11-10T22:57:57.330Z,82.93
2018-11-10T23:00:02.352Z,82.89
2018-11-10T23:02:07.365Z,82.75
2018-11-10T23:04:12.246Z,83.25
2018-11-10T23:06:17.333Z,83.47
2018-11-10T23:08:22.371Z,82.96
2018-11-10T23:10:27.416Z,83.32
2018-11-10T23:12:32.259Z,83.35
2018-11-10T23:14:37.124Z,83.61
2018-11-10T23:16:42.019Z,83.23
2018-11-10T23:18:46.954Z,83.38
2018-11-10T23:20:51.750Z,83.61
2018-11-10T23:22:56.674Z,83.44
2018-11-10T23:25:01.593Z,83.49
2018-11-10T23:27:06.588Z,83.55
2018-11-10T23:29:11.571Z,83.72
2018-11-10T23:31:16.412Z,83.39
2018-11-10T23:33:21.198Z,83.18
2018-11-10T23:35:25.966Z,81.84
2018-11-10T23:37:30.905Z,81.90
2018-11-10T23:39:35.766Z,82.01
2018-11-10T23:41:41.237Z,82.03
2018-11-10T23:43:46.035Z,82.17
2018-11-10T23:45:51.748Z,82.42
2018-11-10T23:47:56.674Z,82.47
2018-11-10T23:50:01.667Z,82.76
2018-11-10T23:52:07.212Z,82.91
2018-11-10T23:54:19.853Z,82.60
2018-11-10T23:56:24.695Z,82.73
2018-11-10T23:58:29.587Z,82.72
